createdAt,value
2022-09-13T00:03:42.732Z,18.16
2022-09-13T00:14:04.315Z,17.99
2022-09-13T00:24:25.792Z,17.66
2022-09-13T00:34:47.270Z,17.68
2022-09-13T00:45:12.156Z,17.54
2022-09-13T00:55:44.333Z,17.93
2022-09-13T01:06:11.616Z,17.63
2022-09-13T01:16:33.272Z,17.59
2022-09-13T01:27:05.061Z,17.68
2022-09-13T01:37:43.913Z,17.74
2022-09-13T01:48:17.325Z,17.73
2022-09-13T01:58:49.918Z,17.83
2022-09-13T02:09:21.203Z,17.80
2022-09-13T02:19:58.222Z,17.67
2022-09-13T02:30:21.073Z,17.81
2022-09-13T02:40:49.257Z,17.66
2022-09-13T02:51:10.691Z,17.63
2022-09-13T03:01:35.412Z,17.67
2022-09-13T03:12:24.976Z,17.69
2022-09-13T03:23:04.750Z,17.65
2022-09-13T03:33:44.274Z,17.73
2022-09-13T03:44:14.094Z,17.64
2022-09-13T03:54:38.623Z,17.63
2022-09-13T04:05:00.076Z,17.62
2022-09-13T04:15:21.894Z,17.57
2022-09-13T04:25:43.365Z,17.53
2022-09-13T04:36:04.949Z,17.41
2022-09-13T04:46:26.446Z,17.46
2022-09-13T04:56:48.802Z,17.43
2022-09-13T05:07:10.421Z,17.56
2022-09-13T05:17:32.089Z,17.49
2022-09-13T05:27:53.526Z,17.43
2022-09-13T05:38:14.982Z,17.58
2022-09-13T05:48:37.338Z,17.62
2022-09-13T05:58:59.193Z,17.65
2022-09-13T06:09:21.037Z,17.65
2022-09-13T06:19:42.624Z,17.68
2022-09-13T06:30:05.357Z,17.69
2022-09-13T06:40:26.883Z,17.85
2022-09-13T06:50:48.334Z,17.87
2022-09-13T07:01:20.129Z,17.83
2022-09-13T07:11:42.439Z,18.11
2022-09-13T07:22:04.906Z,18.10
2022-09-13T07:32:26.386Z,17.80
2022-09-13T07:42:47.919Z,17.73
2022-09-13T07:53:09.368Z,17.80
2022-09-13T08:03:31.406Z,17.97
2022-09-13T08:13:53.063Z,18.21
2022-09-13T08:24:21.291Z,18.49
2022-09-13T08:34:42.835Z,18.54
2022-09-13T08:45:04.567Z,18.88
2022-09-13T08:55:50.163Z,18.64
2022-09-13T09:06:17.099Z,18.80
2022-09-13T09:16:43.372Z,18.89
2022-09-13T09:27:15.731Z,19.04
2022-09-13T09:37:38.855Z,19.47
2022-09-13T09:48:09.399Z,19.25
2022-09-13T09:58:38.349Z,19.81
2022-09-13T10:09:02.710Z,19.99
2022-09-13T10:19:26.533Z,19.93
2022-09-13T10:29:51.995Z,19.62
2022-09-13T10:40:22.983Z,19.98
2022-09-13T10:51:05.903Z,20.45
2022-09-13T11:01:41.230Z,20.53
2022-09-13T11:12:18.534Z,20.73
2022-09-13T11:23:02.176Z,20.27
2022-09-13T11:33:53.252Z,20.46
2022-09-13T11:44:52.795Z,20.70
2022-09-13T11:55:18.838Z,20.51
2022-09-13T12:05:57.868Z,20.77
2022-09-13T12:16:48.782Z,20.69
2022-09-13T12:27:37.666Z,20.86
2022-09-13T12:38:11.796Z,20.92
2022-09-13T12:49:10.766Z,20.48
2022-09-13T12:59:53.400Z,21.13
2022-09-13T13:10:33.622Z,21.24
2022-09-13T13:20:55.014Z,21.21
2022-09-13T13:31:29.825Z,21.24
2022-09-13T13:42:01.625Z,20.94
2022-09-13T13:52:26.076Z,20.78
2022-09-13T14:02:50.492Z,20.71
2022-09-13T14:13:30.223Z,20.90
2022-09-13T14:24:11.970Z,20.53
2022-09-13T14:34:36.341Z,20.30
2022-09-13T14:45:05.385Z,20.40
2022-09-13T14:55:38.022Z,20.88
2022-09-13T15:06:01.236Z,20.71
2022-09-13T15:16:37.235Z,20.36
2022-09-13T15:27:03.267Z,20.28
2022-09-13T15:37:33.540Z,20.16
2022-09-13T15:47:54.997Z,20.46
2022-09-13T15:58:16.344Z,20.82
2022-09-13T16:08:38.646Z,20.47
2022-09-13T16:19:00.075Z,20.00
2022-09-13T16:29:21.502Z,19.71
2022-09-13T16:39:43.123Z,19.83
2022-09-13T16:50:06.279Z,19.89
2022-09-13T17:00:28.776Z,19.61
2022-09-13T17:10:50.127Z,19.31
2022-09-13T17:21:11.508Z,19.27
2022-09-13T17:31:32.942Z,19.09
2022-09-13T17:41:54.750Z,18.88
2022-09-13T17:52:16.102Z,18.66
2022-09-13T18:02:37.532Z,18.45
2022-09-13T18:12:58.982Z,18.14
2022-09-13T18:23:20.638Z,18.03
2022-09-13T18:33:42.236Z,18.08
2022-09-13T18:44:05.016Z,17.82
2022-09-13T18:54:26.387Z,17.79
2022-09-13T19:04:48.007Z,17.75
2022-09-13T19:15:10.216Z,17.59
2022-09-13T19:25:33.898Z,17.29
2022-09-13T19:35:55.237Z,17.35
2022-09-13T19:46:19.640Z,17.09
2022-09-13T19:56:42.699Z,17.29
2022-09-13T20:07:04.096Z,17.17
2022-09-13T20:17:25.510Z,16.81
2022-09-13T20:27:46.943Z,16.85
2022-09-13T20:38:08.300Z,16.77
2022-09-13T20:48:29.656Z,16.65
2022-09-13T20:58:57.462Z,16.57
2022-09-13T21:09:19.213Z,16.13
2022-09-13T21:19:40.633Z,15.93
2022-09-13T21:30:02.086Z,16.12
2022-09-13T21:40:23.547Z,15.94
2022-09-13T21:50:44.914Z,15.68
2022-09-13T22:01:06.395Z,15.69
2022-09-13T22:11:29.204Z,15.66
2022-09-13T22:21:53.710Z,15.37
2022-09-13T22:32:15.123Z,15.47
2022-09-13T22:42:36.456Z,15.39
2022-09-13T22:52:57.848Z,15.45
2022-09-13T23:03:19.282Z,15.31
2022-09-13T23:13:41.100Z,15.19
2022-09-13T23:24:04.199Z,15.02
2022-09-13T23:34:25.881Z,15.05
2022-09-13T23:44:47.285Z,14.72
2022-09-13T23:55:09.184Z,14.80
